createdAt,value
2022-10-06T00:01:29.043Z,11.60
2022-10-06T00:03:57.765Z,11.60
2022-10-06T00:06:27.402Z,11.50
2022-10-06T00:08:55.677Z,11.50
2022-10-06T00:11:23.941Z,11.50
2022-10-06T00:13:52.696Z,11.50
2022-10-06T00:16:23.514Z,11.40
2022-10-06T00:18:52.147Z,11.50
2022-10-06T00:21:20.462Z,11.40
2022-10-06T00:23:50.718Z,11.40
2022-10-06T00:26:33.184Z,11.40
2022-10-06T00:29:02.021Z,11.40
2022-10-06T00:31:30.289Z,11.40
2022-10-06T00:33:58.637Z,11.40
2022-10-06T00:36:28.278Z,11.40
2022-10-06T00:38:58.025Z,11.30
2022-10-06T00:41:26.432Z,11.40
2022-10-06T00:43:56.854Z,11.40
2022-10-06T00:46:37.603Z,11.40
2022-10-06T00:49:11.723Z,11.30
2022-10-06T00:51:44.009Z,11.30
2022-10-06T00:54:14.429Z,11.30
2022-10-06T00:56:43.132Z,11.20
2022-10-06T00:59:13.744Z,11.20
2022-10-06T01:01:47.438Z,11.20
2022-10-06T01:04:18.018Z,11.10
2022-10-06T01:06:49.877Z,11.20
2022-10-06T01:09:24.581Z,11.10
2022-10-06T01:11:54.843Z,11.20
2022-10-06T01:14:25.741Z,11.10
2022-10-06T01:16:59.512Z,11.10
2022-10-06T01:19:40.603Z,11.10
2022-10-06T01:22:11.044Z,11.10
2022-10-06T01:24:41.204Z,11.10
2022-10-06T01:27:11.267Z,11.10
2022-10-06T01:29:40.025Z,11.10
2022-10-06T01:32:08.962Z,11.00
2022-10-06T01:34:38.115Z,11.00
2022-10-06T01:37:06.762Z,11.00
2022-10-06T01:39:35.513Z,11.00
2022-10-06T01:42:05.493Z,10.90
2022-10-06T01:44:33.900Z,11.00
2022-10-06T01:47:02.375Z,11.00
2022-10-06T01:49:30.582Z,10.90
2022-10-06T01:51:59.117Z,10.90
2022-10-06T01:54:27.551Z,10.90
2022-10-06T01:56:56.814Z,10.90
2022-10-06T01:59:27.132Z,10.90
2022-10-06T02:01:55.838Z,10.90
2022-10-06T02:04:24.192Z,10.90
2022-10-06T02:06:52.801Z,10.90
2022-10-06T02:09:21.318Z,10.90
2022-10-06T02:11:49.671Z,10.80
2022-10-06T02:14:19.087Z,10.80
2022-10-06T02:16:51.341Z,10.90
2022-10-06T02:19:19.669Z,10.80
2022-10-06T02:21:47.892Z,10.80
2022-10-06T02:24:16.588Z,10.80
2022-10-06T02:26:44.910Z,10.80
2022-10-06T02:29:28.134Z,10.70
2022-10-06T02:31:58.953Z,10.70
2022-10-06T02:34:27.357Z,10.70
2022-10-06T02:36:55.672Z,10.60
2022-10-06T02:39:24.124Z,10.60
2022-10-06T02:41:52.420Z,10.60
2022-10-06T02:44:21.498Z,10.60
2022-10-06T02:46:50.347Z,10.50
2022-10-06T02:49:24.168Z,10.50
2022-10-06T02:51:53.598Z,10.50
2022-10-06T02:54:21.813Z,10.50
2022-10-06T02:56:50.335Z,10.40
2022-10-06T02:59:18.687Z,10.50
2022-10-06T03:01:47.076Z,10.40
2022-10-06T03:04:18.429Z,10.40
2022-10-06T03:06:50.025Z,10.40
2022-10-06T03:09:24.269Z,10.40
2022-10-06T03:11:54.337Z,10.40
2022-10-06T03:14:48.761Z,10.40
2022-10-06T03:17:32.131Z,10.40
2022-10-06T03:20:00.530Z,10.40
2022-10-06T03:22:30.164Z,10.40
2022-10-06T03:24:59.149Z,10.40
2022-10-06T03:27:28.001Z,10.30
2022-10-06T03:30:01.855Z,10.30
2022-10-06T03:32:33.033Z,10.30
2022-10-06T03:35:01.374Z,10.30
2022-10-06T03:37:31.543Z,10.30
2022-10-06T03:40:00.835Z,10.30
2022-10-06T03:42:29.124Z,10.20
2022-10-06T03:44:58.410Z,10.20
2022-10-06T03:47:31.150Z,10.20
2022-10-06T03:49:59.736Z,10.20
2022-10-06T03:52:31.186Z,10.10
2022-10-06T03:55:00.834Z,10.10
2022-10-06T03:57:29.280Z,10.10
2022-10-06T03:59:59.826Z,10.10
2022-10-06T04:02:28.233Z,10.10
2022-10-06T04:04:58.882Z,10.00
2022-10-06T04:07:27.708Z,10.00
2022-10-06T04:09:56.106Z,10.00
2022-10-06T04:12:25.776Z,10.00
2022-10-06T04:14:59.281Z,10.00
2022-10-06T04:17:29.894Z,10.00
2022-10-06T04:20:01.050Z,10.00
2022-10-06T04:22:29.625Z,9.90
2022-10-06T04:24:57.929Z,9.90
2022-10-06T04:27:30.641Z,9.90
2022-10-06T04:30:09.153Z,9.90
2022-10-06T04:32:37.972Z,9.90
2022-10-06T04:35:06.819Z,9.90
2022-10-06T04:37:35.068Z,9.90
2022-10-06T04:40:04.396Z,9.90
2022-10-06T04:42:36.808Z,9.90
2022-10-06T04:45:10.477Z,9.90
2022-10-06T04:47:40.570Z,9.80
2022-10-06T04:50:23.361Z,9.80
2022-10-06T04:53:11.945Z,9.80
2022-10-06T04:55:41.330Z,9.80
2022-10-06T04:58:11.417Z,9.70
2022-10-06T05:00:39.967Z,9.70
2022-10-06T05:03:08.550Z,9.70
2022-10-06T05:05:37.445Z,9.70
2022-10-06T05:08:05.949Z,9.60
2022-10-06T05:10:34.389Z,9.60
2022-10-06T05:13:06.088Z,9.50
2022-10-06T05:15:35.885Z,9.50
2022-10-06T05:18:05.557Z,9.50
2022-10-06T05:20:34.207Z,9.50
2022-10-06T05:23:07.061Z,9.50
2022-10-06T05:25:35.616Z,9.40
2022-10-06T05:28:05.246Z,9.50
2022-10-06T05:30:35.075Z,9.50
2022-10-06T05:33:05.134Z,9.50
2022-10-06T05:35:33.724Z,9.50
2022-10-06T05:38:04.550Z,9.50
2022-10-06T05:40:33.715Z,9.50
2022-10-06T05:43:02.515Z,9.50
2022-10-06T05:45:31.030Z,9.40
2022-10-06T05:48:08.167Z,9.40
2022-10-06T05:50:39.055Z,9.40
2022-10-06T05:53:10.324Z,9.40
2022-10-06T05:55:41.892Z,9.40
2022-10-06T05:58:11.287Z,9.40
2022-10-06T06:00:40.633Z,9.40
2022-10-06T06:03:11.403Z,9.40
2022-10-06T06:05:43.665Z,9.40
2022-10-06T06:08:16.938Z,9.30
2022-10-06T06:10:45.854Z,9.30
2022-10-06T06:13:20.371Z,9.30
2022-10-06T06:16:04.482Z,9.20
2022-10-06T06:18:38.301Z,9.20
2022-10-06T06:21:13.517Z,9.10
2022-10-06T06:23:47.223Z,9.10
2022-10-06T06:26:19.185Z,9.10
2022-10-06T06:28:51.549Z,9.10
2022-10-06T06:31:22.362Z,9.10
2022-10-06T06:33:58.462Z,9.00
2022-10-06T06:36:32.131Z,9.00
2022-10-06T06:39:00.553Z,9.00
2022-10-06T06:41:32.946Z,9.00
2022-10-06T06:44:11.523Z,9.00
2022-10-06T06:46:49.571Z,8.90
2022-10-06T06:49:22.486Z,8.90
2022-10-06T06:51:58.355Z,8.90
2022-10-06T06:54:28.870Z,8.90
2022-10-06T06:57:03.573Z,8.90
2022-10-06T06:59:34.081Z,8.90
2022-10-06T07:02:03.432Z,8.90
2022-10-06T07:04:37.349Z,9.00
2022-10-06T07:07:07.697Z,9.00
2022-10-06T07:09:41.185Z,9.10
2022-10-06T07:12:12.372Z,9.10
2022-10-06T07:15:00.428Z,9.20
2022-10-06T07:17:48.156Z,9.10
2022-10-06T07:20:36.271Z,9.20
2022-10-06T07:23:23.461Z,9.20
2022-10-06T07:25:53.633Z,9.30
2022-10-06T07:28:22.909Z,9.50
2022-10-06T07:30:52.755Z,9.90
2022-10-06T07:33:22.363Z,10.50
2022-10-06T07:35:53.055Z,11.10
2022-10-06T07:38:25.741Z,11.70
2022-10-06T07:41:17.825Z,12.40
2022-10-06T07:43:46.863Z,12.90
2022-10-06T07:46:16.489Z,13.50
2022-10-06T07:49:08.736Z,14.00
2022-10-06T07:51:42.950Z,14.60
2022-10-06T07:54:11.788Z,15.00
2022-10-06T07:56:52.550Z,15.40
2022-10-06T07:59:20.866Z,15.90
2022-10-06T08:01:51.197Z,16.40
2022-10-06T08:04:19.621Z,16.90
2022-10-06T08:06:49.455Z,17.30
2022-10-06T08:09:17.730Z,17.80
2022-10-06T08:11:47.304Z,18.30
2022-10-06T08:14:16.801Z,18.60
2022-10-06T08:16:45.528Z,18.90
2022-10-06T08:19:14.613Z,19.40
2022-10-06T08:21:43.102Z,19.70
2022-10-06T08:24:15.268Z,20.00
2022-10-06T08:26:44.029Z,20.40
2022-10-06T08:29:13.070Z,20.70
2022-10-06T08:31:41.900Z,20.90
2022-10-06T08:34:12.124Z,21.10
2022-10-06T08:36:48.230Z,21.40
2022-10-06T08:39:31.666Z,21.70
2022-10-06T08:42:14.038Z,22.10
2022-10-06T08:44:48.965Z,22.40
2022-10-06T08:47:19.668Z,22.50
2022-10-06T08:49:50.241Z,22.90
2022-10-06T08:52:36.975Z,23.10
2022-10-06T08:55:15.918Z,23.30
2022-10-06T08:57:51.946Z,23.60
2022-10-06T09:00:21.474Z,23.80
2022-10-06T09:02:52.047Z,23.90
2022-10-06T09:05:26.569Z,24.10
2022-10-06T09:08:16.368Z,24.40
2022-10-06T09:10:55.734Z,24.60
2022-10-06T09:13:29.648Z,24.70
2022-10-06T09:16:07.245Z,24.80
2022-10-06T09:19:09.825Z,25.00
2022-10-06T09:21:39.784Z,25.20
2022-10-06T09:24:23.220Z,25.30
2022-10-06T09:26:56.842Z,25.40
2022-10-06T09:29:31.772Z,25.50
2022-10-06T09:32:02.804Z,25.70
2022-10-06T09:34:38.352Z,26.10
2022-10-06T09:37:09.379Z,26.20
2022-10-06T09:39:40.054Z,26.10
2022-10-06T09:42:16.380Z,26.30
2022-10-06T09:44:56.219Z,26.70
2022-10-06T09:47:37.127Z,26.80
2022-10-06T09:50:27.948Z,26.90
2022-10-06T09:53:16.797Z,26.90
2022-10-06T09:55:55.009Z,27.00
2022-10-06T09:58:34.098Z,26.90
2022-10-06T10:01:05.177Z,26.90
2022-10-06T10:04:01.851Z,27.00
2022-10-06T10:06:36.258Z,27.00
2022-10-06T10:09:22.216Z,27.10
2022-10-06T10:12:20.144Z,27.40
2022-10-06T10:14:50.474Z,27.50
2022-10-06T10:17:21.667Z,27.60
2022-10-06T10:19:54.384Z,27.90
2022-10-06T10:22:28.532Z,28.00
2022-10-06T10:25:06.374Z,28.00
2022-10-06T10:27:41.099Z,28.10
2022-10-06T10:30:16.667Z,28.20
2022-10-06T10:32:54.792Z,28.30
2022-10-06T10:35:27.194Z,28.20
2022-10-06T10:38:01.286Z,28.20
2022-10-06T10:40:43.031Z,28.20
2022-10-06T10:43:24.443Z,28.30
2022-10-06T10:45:58.130Z,28.20
2022-10-06T10:48:31.429Z,27.70
2022-10-06T10:51:06.565Z,27.50
2022-10-06T10:53:44.352Z,27.60
2022-10-06T10:56:15.459Z,27.70
2022-10-06T10:58:45.525Z,27.90
2022-10-06T11:01:29.912Z,27.90
2022-10-06T11:03:59.197Z,27.90
2022-10-06T11:06:54.233Z,28.00
2022-10-06T11:09:27.543Z,28.10
2022-10-06T11:12:17.463Z,28.10
2022-10-06T11:14:54.720Z,28.10
2022-10-06T11:17:44.499Z,28.00
2022-10-06T11:20:28.727Z,28.10
2022-10-06T11:23:06.776Z,28.30
2022-10-06T11:25:43.654Z,27.80
2022-10-06T11:28:19.917Z,26.90
2022-10-06T11:31:00.267Z,26.20
2022-10-06T11:33:35.325Z,25.90
2022-10-06T11:36:04.785Z,26.10
2022-10-06T11:38:40.285Z,26.40
2022-10-06T11:41:14.339Z,26.50
2022-10-06T11:43:49.504Z,26.40
2022-10-06T11:46:34.937Z,26.30
2022-10-06T11:49:56.506Z,26.30
2022-10-06T11:52:56.974Z,25.90
2022-10-06T11:55:28.943Z,25.80
2022-10-06T12:01:06.815Z,24.70
2022-10-06T12:03:48.990Z,24.30
2022-10-06T12:06:54.188Z,24.50
2022-10-06T12:09:53.403Z,24.60
2022-10-06T12:13:07.136Z,24.40
2022-10-06T12:19:16.812Z,24.20
2022-10-06T12:21:59.964Z,23.70
2022-10-06T12:24:41.381Z,23.40
2022-10-06T12:27:31.570Z,23.10
2022-10-06T12:30:05.801Z,23.20
2022-10-06T12:32:49.983Z,23.20
2022-10-06T12:35:32.924Z,23.10
2022-10-06T12:38:04.967Z,22.90
2022-10-06T12:40:49.654Z,22.70
2022-10-06T12:43:30.183Z,22.80
2022-10-06T12:46:01.049Z,22.60
2022-10-06T12:48:37.198Z,22.50
2022-10-06T12:51:22.341Z,22.40
2022-10-06T12:53:58.402Z,22.30
2022-10-06T12:56:34.064Z,22.00
2022-10-06T12:59:21.058Z,22.00
2022-10-06T13:01:51.572Z,21.80
2022-10-06T13:04:37.942Z,21.60
2022-10-06T13:07:14.871Z,21.60
2022-10-06T13:09:43.601Z,21.60
2022-10-06T13:12:25.975Z,21.60
2022-10-06T13:15:17.312Z,21.40
2022-10-06T13:17:49.765Z,21.30
2022-10-06T13:20:57.326Z,21.30
2022-10-06T13:23:28.333Z,21.40
2022-10-06T13:26:01.628Z,21.30
2022-10-06T13:28:46.657Z,21.20
2022-10-06T13:31:23.352Z,21.00
2022-10-06T13:33:56.541Z,20.90
2022-10-06T13:36:26.105Z,20.70
2022-10-06T13:38:54.509Z,20.60
2022-10-06T13:41:29.674Z,20.40
2022-10-06T13:44:01.592Z,20.40
2022-10-06T13:46:32.808Z,20.30
2022-10-06T13:49:04.527Z,20.30
2022-10-06T13:51:33.947Z,20.20
2022-10-06T13:54:07.677Z,20.20
2022-10-06T13:56:38.817Z,20.10
2022-10-06T13:59:32.222Z,20.10
2022-10-06T14:02:04.325Z,19.90
2022-10-06T14:04:34.733Z,20.00
2022-10-06T14:07:05.909Z,19.90
2022-10-06T14:09:35.284Z,20.00
2022-10-06T14:12:06.233Z,19.90
2022-10-06T14:14:35.946Z,19.80
2022-10-06T14:17:04.611Z,19.70
2022-10-06T14:19:36.586Z,19.70
2022-10-06T14:22:06.236Z,19.60
2022-10-06T14:24:37.326Z,19.50
2022-10-06T14:27:07.823Z,19.40
2022-10-06T14:29:38.046Z,19.40
2022-10-06T14:32:13.838Z,19.40
2022-10-06T14:34:42.357Z,19.30
2022-10-06T14:37:15.215Z,19.20
2022-10-06T14:39:44.324Z,19.20
2022-10-06T14:42:14.426Z,19.10
2022-10-06T14:44:59.351Z,19.10
2022-10-06T14:47:27.863Z,19.10
2022-10-06T14:49:56.166Z,19.10
2022-10-06T14:52:24.399Z,19.10
2022-10-06T14:54:52.648Z,19.10
2022-10-06T14:57:21.479Z,19.00
2022-10-06T14:59:51.496Z,18.90
2022-10-06T15:02:21.314Z,18.90
2022-10-06T15:04:49.644Z,18.90
2022-10-06T15:07:35.480Z,18.90
2022-10-06T15:10:05.787Z,18.80
2022-10-06T15:12:34.249Z,18.80
2022-10-06T15:15:02.749Z,18.70
2022-10-06T15:17:32.409Z,18.70
2022-10-06T15:20:04.095Z,18.70
2022-10-06T15:22:32.428Z,18.60
2022-10-06T15:25:03.266Z,18.50
2022-10-06T15:27:48.986Z,18.40
2022-10-06T15:30:18.620Z,18.40
2022-10-06T15:32:51.116Z,18.40
2022-10-06T15:35:19.477Z,18.30
2022-10-06T15:37:47.834Z,18.20
2022-10-06T15:40:16.470Z,18.10
2022-10-06T15:42:44.928Z,18.10
2022-10-06T15:45:13.282Z,18.00
2022-10-06T15:47:41.950Z,18.00
2022-10-06T15:50:25.703Z,18.00
2022-10-06T15:52:53.963Z,18.00
2022-10-06T15:55:22.212Z,18.00
2022-10-06T15:57:50.465Z,18.00
2022-10-06T16:00:19.540Z,18.00
2022-10-06T16:02:50.272Z,18.00
2022-10-06T16:05:46.379Z,18.00
2022-10-06T16:08:14.616Z,17.90
2022-10-06T16:10:42.800Z,17.90
2022-10-06T16:13:12.213Z,17.80
2022-10-06T16:15:41.310Z,17.80
2022-10-06T16:18:09.598Z,17.80
2022-10-06T16:20:40.202Z,17.80
2022-10-06T16:23:08.510Z,17.80
2022-10-06T16:25:36.774Z,17.80
2022-10-06T16:28:09.324Z,17.70
2022-10-06T16:30:37.629Z,17.70
2022-10-06T16:33:06.623Z,17.60
2022-10-06T16:35:49.760Z,17.60
2022-10-06T16:38:20.353Z,17.60
2022-10-06T16:40:55.167Z,17.50
2022-10-06T16:43:23.783Z,17.50
2022-10-06T16:46:02.104Z,17.50
2022-10-06T16:48:34.979Z,17.50
2022-10-06T16:51:08.284Z,17.50
2022-10-06T16:53:40.769Z,17.50
2022-10-06T16:56:15.181Z,17.30
2022-10-06T16:58:46.818Z,17.30
2022-10-06T17:01:16.921Z,17.30
2022-10-06T17:03:47.271Z,17.20
2022-10-06T17:06:22.966Z,17.20
2022-10-06T17:08:54.716Z,17.10
2022-10-06T17:11:26.028Z,17.10
2022-10-06T17:13:56.091Z,17.10
2022-10-06T17:16:26.124Z,17.00
2022-10-06T17:18:56.058Z,17.00
2022-10-06T17:21:46.186Z,16.90
2022-10-06T17:24:17.739Z,16.90
2022-10-06T17:26:48.571Z,16.80
2022-10-06T17:29:19.461Z,16.70
2022-10-06T17:31:49.359Z,16.60
2022-10-06T17:34:21.854Z,16.50
2022-10-06T17:36:55.418Z,16.40
2022-10-06T17:39:25.436Z,16.40
2022-10-06T17:41:54.796Z,16.20
2022-10-06T17:44:26.691Z,16.20
2022-10-06T17:46:57.208Z,16.10
2022-10-06T17:49:26.219Z,16.00
2022-10-06T17:51:56.505Z,15.90
2022-10-06T17:54:28.286Z,15.80
2022-10-06T17:56:59.226Z,15.80
2022-10-06T17:59:30.528Z,15.60
2022-10-06T18:02:24.786Z,15.60
2022-10-06T18:04:53.745Z,15.50
2022-10-06T18:07:22.181Z,15.40
2022-10-06T18:10:05.997Z,15.30
2022-10-06T18:12:36.182Z,15.20
2022-10-06T18:15:05.005Z,15.20
2022-10-06T18:17:33.495Z,15.10
2022-10-06T18:20:03.274Z,15.00
2022-10-06T18:22:31.900Z,14.90
2022-10-06T18:25:02.054Z,14.80
2022-10-06T18:27:33.245Z,14.70
2022-10-06T18:30:01.964Z,14.60
2022-10-06T18:38:08.427Z,14.50
2022-10-06T18:40:39.334Z,14.40
2022-10-06T18:43:07.668Z,14.30
2022-10-06T18:45:53.337Z,14.20
2022-10-06T18:48:41.817Z,14.20
2022-10-06T18:51:10.439Z,14.10
2022-10-06T18:53:39.084Z,14.10
2022-10-06T18:56:08.924Z,14.00
2022-10-06T18:58:40.574Z,14.00
2022-10-06T19:01:09.576Z,13.90
2022-10-06T19:03:38.052Z,13.90
2022-10-06T19:06:07.994Z,13.80
2022-10-06T19:08:36.872Z,13.70
2022-10-06T19:11:24.325Z,13.70
2022-10-06T19:13:56.303Z,13.60
2022-10-06T19:16:25.069Z,13.60
2022-10-06T19:18:54.509Z,13.50
2022-10-06T19:21:22.923Z,13.50
2022-10-06T19:23:51.487Z,13.40
2022-10-06T19:26:22.689Z,13.30
2022-10-06T19:28:53.638Z,13.30
2022-10-06T19:31:23.445Z,13.30
2022-10-06T19:33:51.946Z,13.20
2022-10-06T19:36:48.764Z,13.20
2022-10-06T19:39:31.687Z,13.10
2022-10-06T19:42:18.021Z,13.10
2022-10-06T19:44:46.935Z,13.10
2022-10-06T19:47:16.772Z,13.00
2022-10-06T19:49:45.298Z,13.00
2022-10-06T19:52:14.589Z,12.90
2022-10-06T19:55:14.600Z,12.80
2022-10-06T19:57:43.674Z,12.70
2022-10-06T20:00:13.352Z,12.60
2022-10-06T20:02:44.535Z,12.50
2022-10-06T20:05:14.290Z,12.50
2022-10-06T20:07:58.129Z,12.50
2022-10-06T20:10:29.032Z,12.40
2022-10-06T20:13:17.714Z,12.40
2022-10-06T20:15:46.097Z,12.30
2022-10-06T20:18:16.170Z,12.30
2022-10-06T20:20:45.301Z,12.30
2022-10-06T20:23:13.624Z,12.20
2022-10-06T20:25:43.337Z,12.20
2022-10-06T20:28:13.030Z,12.20
2022-10-06T20:30:49.612Z,12.10
2022-10-06T20:33:22.242Z,12.10
2022-10-06T20:35:50.646Z,12.00
2022-10-06T20:38:39.377Z,12.00
2022-10-06T20:41:07.082Z,12.00
2022-10-06T20:43:35.822Z,11.90
2022-10-06T20:46:04.173Z,11.90
2022-10-06T20:48:36.523Z,11.90
2022-10-06T20:51:12.347Z,11.90
2022-10-06T20:53:43.656Z,11.90
2022-10-06T20:56:12.486Z,11.80
2022-10-06T20:58:43.642Z,11.80
2022-10-06T21:01:13.928Z,11.70
2022-10-06T21:03:48.718Z,11.70
2022-10-06T21:06:18.669Z,11.70
2022-10-06T21:08:48.347Z,11.70
2022-10-06T21:11:19.259Z,11.60
2022-10-06T21:13:51.621Z,11.60
2022-10-06T21:16:20.419Z,11.60
2022-10-06T21:18:51.060Z,11.60
2022-10-06T21:21:19.732Z,11.60
2022-10-06T21:23:50.447Z,11.60
2022-10-06T21:26:20.344Z,11.50
2022-10-06T21:28:49.642Z,11.50
2022-10-06T21:31:19.971Z,11.50
2022-10-06T21:33:50.547Z,11.50
2022-10-06T21:36:20.646Z,11.40
2022-10-06T21:38:51.930Z,11.40
2022-10-06T21:41:31.792Z,11.40
2022-10-06T21:44:03.520Z,11.40
2022-10-06T21:46:34.076Z,11.30
2022-10-06T21:49:05.645Z,11.30
2022-10-06T21:51:34.463Z,11.30
2022-10-06T21:54:24.018Z,11.30
2022-10-06T21:56:52.704Z,11.20
2022-10-06T21:59:41.253Z,11.20
2022-10-06T22:02:10.182Z,11.10
2022-10-06T22:04:40.331Z,11.10
2022-10-06T22:07:08.544Z,11.00
2022-10-06T22:09:36.820Z,11.00
2022-10-06T22:12:05.793Z,11.00
2022-10-06T22:14:34.034Z,11.00
2022-10-06T22:17:04.332Z,11.00
2022-10-06T22:19:33.097Z,11.00
2022-10-06T22:22:02.709Z,10.90
2022-10-06T22:24:31.315Z,10.90
2022-10-06T22:26:59.748Z,10.90
2022-10-06T22:29:28.380Z,10.90
2022-10-06T22:31:58.508Z,10.80
2022-10-06T22:34:27.411Z,10.80
2022-10-06T22:36:55.677Z,10.80
2022-10-06T22:39:25.371Z,10.70
2022-10-06T22:41:53.719Z,10.70
2022-10-06T22:44:22.031Z,10.60
2022-10-06T22:46:50.293Z,10.60
2022-10-06T22:49:19.376Z,10.60
2022-10-06T22:51:47.611Z,10.50
2022-10-06T22:54:19.091Z,10.50
2022-10-06T22:56:48.902Z,10.50
2022-10-06T22:59:32.606Z,10.40
2022-10-06T23:02:05.176Z,10.30
2022-10-06T23:04:33.900Z,10.30
2022-10-06T23:07:02.202Z,10.20
2022-10-06T23:09:30.487Z,10.20
2022-10-06T23:12:00.056Z,10.10
2022-10-06T23:14:28.472Z,10.10
2022-10-06T23:16:56.764Z,10.10
2022-10-06T23:19:25.313Z,10.10
2022-10-06T23:21:53.594Z,10.00
2022-10-06T23:24:22.264Z,10.10
2022-10-06T23:26:50.692Z,10.00
2022-10-06T23:29:21.364Z,10.00
2022-10-06T23:31:49.700Z,9.90
2022-10-06T23:34:18.067Z,9.90
2022-10-06T23:36:46.494Z,9.90
2022-10-06T23:39:15.071Z,9.90
2022-10-06T23:41:43.285Z,9.90
2022-10-06T23:44:11.568Z,9.80
2022-10-06T23:46:41.244Z,9.80
2022-10-06T23:49:09.468Z,9.80
2022-10-06T23:51:37.651Z,9.80
2022-10-06T23:54:05.955Z,9.80
2022-10-06T23:56:34.113Z,9.70
2022-10-06T23:59:02.373Z,9.70
